Haverhill, Massachusetts
Traffic Map
Current Weather Conditions
Haverhill, Massachusetts
Overcast Haze
Overcast
54°
Feels Like: 54°
Wind Chill: 54° Ceiling: 300
Heat Index: 54° Visibility: 1.7mi
Dew Point: 52° Wind: 3mph
Humidity: 93% Direction: 90° (E)
Pressure: 29.64in Gusts: 0mph
Raw Report DataKLWM 260544Z AUTO 09003KT 1 3/4SM BR OVC003 12/11 A2964 RMK AO2 T01220111
Traffic Incident Summary
Active as of:
Severity:
Category:
InformationThere was an issue retrieving the traffic information for this location. Please try a different location or try again shortly.
Advertisements